createdAt,value
2022-08-30T00:00:17.194Z,89.2
2022-08-30T00:01:33.478Z,88.9
2022-08-30T00:02:49.783Z,88.6
2022-08-30T00:04:06.073Z,88.7
2022-08-30T00:05:22.371Z,88.7
2022-08-30T00:06:38.665Z,88.1
2022-08-30T00:07:54.961Z,87.7
2022-08-30T00:09:11.240Z,87.3
2022-08-30T00:10:27.542Z,87.3
2022-08-30T00:11:43.835Z,87.3
2022-08-30T00:13:00.136Z,86.8
2022-08-30T00:14:16.421Z,86.8
2022-08-30T00:15:32.720Z,86.5
2022-08-30T00:16:48.019Z,86.5
2022-08-30T00:18:04.320Z,86.6
2022-08-30T00:19:20.604Z,86.7
2022-08-30T00:20:36.913Z,86.8
2022-08-30T00:21:53.209Z,87.2
2022-08-30T00:23:09.491Z,87.6
2022-08-30T00:24:25.795Z,87.8
2022-08-30T00:25:42.081Z,87.9
2022-08-30T00:26:58.375Z,87.8
2022-08-30T00:28:14.663Z,88
2022-08-30T00:29:30.971Z,88
2022-08-30T00:30:47.256Z,88.2
2022-08-30T00:32:03.547Z,88.3
2022-08-30T00:33:18.859Z,88.5
2022-08-30T00:34:35.163Z,88.5
2022-08-30T00:35:51.000Z,88.3
2022-08-30T00:37:07.754Z,88.2
2022-08-30T00:38:24.030Z,87.6
2022-08-30T00:39:40.327Z,87.7
2022-08-30T00:40:56.623Z,87.6
2022-08-30T00:42:12.925Z,87.8
2022-08-30T00:43:29.214Z,88.5
2022-08-30T00:44:45.504Z,88.3
2022-08-30T00:46:01.805Z,88.3
2022-08-30T00:47:18.097Z,88.7
2022-08-30T00:48:34.389Z,88.2
2022-08-30T00:49:49.702Z,88.3
2022-08-30T00:51:05.990Z,88.3
2022-08-30T00:52:22.295Z,88.5
2022-08-30T00:53:38.585Z,88.5
2022-08-30T00:54:54.875Z,88.3
2022-08-30T00:56:11.161Z,88.3
2022-08-30T00:57:27.459Z,88.2
2022-08-30T00:58:43.769Z,88.3
2022-08-30T01:00:00.049Z,88.3
2022-08-30T01:01:16.339Z,88.2
2022-08-30T01:02:32.648Z,88.3
2022-08-30T01:03:48.932Z,88.3
2022-08-30T01:05:05.237Z,88.5
2022-08-30T01:06:20.550Z,88.5
2022-08-30T01:07:36.828Z,88.5
2022-08-30T01:08:53.131Z,88.7
2022-08-30T01:10:09.425Z,88.6
2022-08-30T01:11:25.711Z,88.2
2022-08-30T01:12:42.005Z,88.2
2022-08-30T01:13:58.311Z,88.2
2022-08-30T01:15:14.600Z,88.7
2022-08-30T01:17:47.193Z,87.8
2022-08-30T01:19:03.483Z,88.3
2022-08-30T01:20:19.765Z,88.5
2022-08-30T01:21:36.078Z,88.3
2022-08-30T01:22:51.375Z,88.6
2022-08-30T01:24:07.682Z,89
2022-08-30T01:25:23.974Z,88.8
2022-08-30T01:26:40.259Z,88.8
2022-08-30T01:27:56.548Z,88.7
2022-08-30T01:29:12.850Z,88.6
2022-08-30T01:30:29.135Z,88.7
2022-08-30T01:31:45.436Z,88.7
2022-08-30T01:33:01.737Z,88.5
2022-08-30T01:34:18.000Z,88.8
2022-08-30T01:35:34.322Z,88.8
2022-08-30T01:36:50.616Z,88.7
2022-08-30T01:38:06.900Z,88.6
2022-08-30T01:39:22.226Z,88.3
2022-08-30T01:40:38.505Z,88.1
2022-08-30T01:43:11.093Z,88.6
2022-08-30T01:44:27.390Z,88.8
2022-08-30T01:45:43.696Z,88.9
2022-08-30T01:46:59.977Z,89.1
2022-08-30T01:48:16.277Z,89.5
2022-08-30T01:49:32.572Z,88.8
2022-08-30T01:50:48.860Z,88.3
2022-08-30T01:52:05.158Z,88
2022-08-30T01:53:21.452Z,88.3
2022-08-30T01:54:37.738Z,88.9
2022-08-30T01:55:53.058Z,88.9
2022-08-30T01:57:09.347Z,88.9
2022-08-30T01:58:25.640Z,89.1
2022-08-30T01:59:41.928Z,89.3
2022-08-30T02:00:58.236Z,89.3
2022-08-30T02:02:14.525Z,89.3
2022-08-30T02:03:30.819Z,89.3
2022-08-30T02:04:47.114Z,88.9
2022-08-30T02:06:03.396Z,88.9
2022-08-30T02:07:19.702Z,88.5
2022-08-30T02:08:36.001Z,88.6
2022-08-30T02:09:52.297Z,88.9
2022-08-30T02:11:08.591Z,89
2022-08-30T02:12:23.884Z,89.3
2022-08-30T02:13:40.183Z,89.4
2022-08-30T02:14:56.490Z,89.4
2022-08-30T02:16:12.770Z,88.8
2022-08-30T02:17:29.059Z,88.9
2022-08-30T02:18:45.356Z,89.2
2022-08-30T02:20:01.662Z,89.5
2022-08-30T02:21:17.960Z,90
2022-08-30T02:22:34.249Z,90.2
2022-08-30T02:23:50.538Z,90.5
2022-08-30T02:25:06.841Z,91.6
2022-08-30T02:27:39.423Z,92.1
2022-08-30T02:28:54.720Z,92.3
2022-08-30T02:30:11.017Z,91.8
2022-08-30T02:31:27.318Z,91.8
2022-08-30T02:32:43.609Z,91.6
2022-08-30T02:33:59.897Z,91.7
2022-08-30T02:35:16.205Z,91.4
2022-08-30T02:36:32.491Z,90.9
2022-08-30T02:37:48.780Z,91.1
2022-08-30T02:39:05.078Z,91.2
2022-08-30T02:40:21.373Z,90.8
2022-08-30T02:41:37.679Z,91
2022-08-30T02:42:53.962Z,91.8
2022-08-30T02:44:10.262Z,92.6
2022-08-30T02:45:25.578Z,93.1
2022-08-30T02:46:41.873Z,93.6
2022-08-30T02:47:58.155Z,93.9
2022-08-30T02:49:14.443Z,94.3
2022-08-30T02:50:30.739Z,94.5
2022-08-30T02:51:47.040Z,94.4
2022-08-30T02:53:03.335Z,94.5
2022-08-30T02:54:19.636Z,94.4
2022-08-30T02:55:35.931Z,94.4
2022-08-30T02:56:52.221Z,94.3
2022-08-30T02:58:08.518Z,94.4
2022-08-30T02:59:24.803Z,94.5
2022-08-30T03:00:41.100Z,94.8
2022-08-30T03:01:56.408Z,95
2022-08-30T03:03:12.709Z,95.1
2022-08-30T03:04:28.994Z,95.1
2022-08-30T03:05:45.296Z,95.3
2022-08-30T03:07:01.584Z,95.3
2022-08-30T03:08:17.887Z,95.1
2022-08-30T03:09:34.167Z,94.9
2022-08-30T03:10:50.468Z,94.6
2022-08-30T03:12:06.751Z,94.5
2022-08-30T03:13:23.052Z,94.3
2022-08-30T03:14:39.353Z,94.1
2022-08-30T03:15:55.650Z,93.8
2022-08-30T03:17:11.942Z,93.4
2022-08-30T03:18:27.247Z,93.1
2022-08-30T03:19:43.539Z,92.6
2022-08-30T03:20:59.844Z,92.2
2022-08-30T03:22:16.134Z,92
2022-08-30T03:23:32.424Z,92.2
2022-08-30T03:24:48.713Z,92
2022-08-30T03:26:04.044Z,92
2022-08-30T03:27:20.318Z,92
2022-08-30T03:28:36.613Z,92
2022-08-30T03:29:52.912Z,92.1
2022-08-30T03:31:09.203Z,92.1
2022-08-30T03:32:25.502Z,92.2
2022-08-30T03:33:41.786Z,91.6
2022-08-30T03:34:58.098Z,90.8
2022-08-30T03:36:14.376Z,90.5
2022-08-30T03:37:30.669Z,90.5
2022-08-30T03:38:46.972Z,90.6
2022-08-30T03:40:03.266Z,90.8
2022-08-30T03:41:19.513Z,91.1
2022-08-30T03:42:34.819Z,91.1
2022-08-30T03:43:51.115Z,91
2022-08-30T03:45:07.357Z,91
2022-08-30T03:46:23.594Z,91
2022-08-30T03:47:39.892Z,90.8
2022-08-30T03:48:56.195Z,90.6
2022-08-30T03:50:12.448Z,90.5
2022-08-30T03:51:28.678Z,90.5
2022-08-30T03:52:44.986Z,90.7
2022-08-30T03:54:01.227Z,90.7
2022-08-30T03:55:17.474Z,90.5
2022-08-30T03:56:33.710Z,90.5
2022-08-30T03:57:49.943Z,90.8
2022-08-30T03:59:05.198Z,90.5
2022-08-30T04:00:21.434Z,90.3
2022-08-30T04:01:37.695Z,90.4
2022-08-30T04:02:53.919Z,90.7
2022-08-30T04:04:10.166Z,90.6
2022-08-30T04:05:26.412Z,90.5
2022-08-30T04:06:42.644Z,90.5
2022-08-30T04:09:15.131Z,90.2
2022-08-30T04:10:31.361Z,90.2
2022-08-30T04:11:47.606Z,90.4
2022-08-30T04:13:03.854Z,90.6
2022-08-30T04:14:20.085Z,90.4
2022-08-30T04:15:35.342Z,90.2
2022-08-30T04:16:51.581Z,90.2
2022-08-30T04:18:07.826Z,90.1
2022-08-30T04:19:24.069Z,90.2
2022-08-30T04:20:40.297Z,90.1
2022-08-30T04:21:56.534Z,90.3
2022-08-30T04:23:12.787Z,90.4
2022-08-30T04:24:29.017Z,90.4
2022-08-30T04:25:45.265Z,90.4
2022-08-30T04:27:01.502Z,90.3
2022-08-30T04:28:17.748Z,89.9
2022-08-30T04:29:33.988Z,89.8
2022-08-30T04:30:50.230Z,89.8
2022-08-30T04:32:05.472Z,89.9
2022-08-30T04:33:21.715Z,89.7
2022-08-30T04:34:37.953Z,89.7
2022-08-30T04:35:54.201Z,89.9
2022-08-30T04:37:10.449Z,90
2022-08-30T04:38:26.670Z,90
2022-08-30T04:39:42.908Z,90.2
2022-08-30T04:40:59.159Z,90.2
2022-08-30T04:42:15.400Z,90.3
2022-08-30T04:43:31.639Z,90.7
2022-08-30T04:44:47.888Z,90.8
2022-08-30T04:46:04.127Z,90.7
2022-08-30T04:47:20.353Z,90.4
2022-08-30T04:48:35.619Z,90.3
2022-08-30T04:49:51.848Z,90.4
2022-08-30T04:51:08.088Z,90.4
2022-08-30T04:52:24.347Z,91.1
2022-08-30T04:53:40.587Z,92.1
2022-08-30T04:54:56.820Z,91.6
2022-08-30T04:56:13.056Z,91
2022-08-30T04:57:29.296Z,90.9
2022-08-30T04:58:45.528Z,90.8
2022-08-30T05:00:01.774Z,90.6
2022-08-30T05:01:18.020Z,90.6
2022-08-30T05:02:34.268Z,90.8
2022-08-30T05:03:50.504Z,91.3
2022-08-30T05:05:05.000Z,92.5
2022-08-30T05:06:22.002Z,93.2
2022-08-30T05:07:38.242Z,93.6
2022-08-30T05:08:54.470Z,94.1
2022-08-30T05:10:10.706Z,94.4
2022-08-30T05:11:26.946Z,94.4
2022-08-30T05:12:43.189Z,94
2022-08-30T05:13:59.429Z,93.9
2022-08-30T05:15:15.670Z,93.3
2022-08-30T05:16:31.907Z,93
2022-08-30T05:17:48.165Z,92.8
2022-08-30T05:19:04.397Z,92.7
2022-08-30T05:20:20.642Z,92.2
2022-08-30T05:21:35.907Z,92
2022-08-30T05:22:52.141Z,91.8
2022-08-30T05:24:08.365Z,91.7
2022-08-30T05:25:24.613Z,91.3
2022-08-30T05:26:40.845Z,91.5
2022-08-30T05:27:57.104Z,91.7
2022-08-30T05:29:13.332Z,92.2
2022-08-30T05:30:29.579Z,92.2
2022-08-30T05:31:45.814Z,92.2
2022-08-30T05:33:02.061Z,91.7
2022-08-30T05:34:18.301Z,91.5
2022-08-30T05:35:34.536Z,91
2022-08-30T05:36:50.780Z,90.4
2022-08-30T05:38:06.030Z,90.1
2022-08-30T05:39:22.280Z,90.1
2022-08-30T05:40:38.506Z,89.7
2022-08-30T05:41:54.750Z,89.7
2022-08-30T05:43:10.992Z,89.5
2022-08-30T05:44:27.235Z,89.3
2022-08-30T05:45:43.471Z,89.2
2022-08-30T05:46:59.715Z,89.1
2022-08-30T05:48:15.940Z,88.3
2022-08-30T05:49:32.183Z,87.4
2022-08-30T05:50:48.433Z,87.6
2022-08-30T05:52:04.679Z,87.8
2022-08-30T05:53:20.908Z,86.8
2022-08-30T05:54:36.170Z,85.9
2022-08-30T05:55:52.401Z,85.2
2022-08-30T05:57:08.639Z,85.2
2022-08-30T05:58:24.885Z,86
2022-08-30T05:59:41.130Z,85
2022-08-30T06:00:57.363Z,84.4
2022-08-30T06:02:13.598Z,84.4
2022-08-30T06:03:29.850Z,85
2022-08-30T06:04:46.097Z,85.4
2022-08-30T06:06:02.318Z,85.4
2022-08-30T06:07:18.575Z,84.7
2022-08-30T06:08:34.803Z,84.3
2022-08-30T06:09:51.055Z,82.8
2022-08-30T06:11:06.301Z,82.9
2022-08-30T06:12:22.539Z,83
2022-08-30T06:13:38.788Z,81.7
2022-08-30T06:14:55.023Z,80.7
2022-08-30T06:16:11.264Z,81.8
2022-08-30T06:17:27.493Z,81.7
2022-08-30T06:18:43.735Z,81.7
2022-08-30T06:19:59.981Z,82.1
2022-08-30T06:21:16.222Z,81.9
2022-08-30T06:22:32.463Z,81.4
2022-08-30T06:23:48.693Z,80.8
2022-08-30T06:25:04.934Z,78.8
2022-08-30T06:26:21.184Z,79.9
2022-08-30T06:27:36.449Z,80.4
2022-08-30T06:28:52.680Z,79.9
2022-08-30T06:30:08.910Z,79.7
2022-08-30T06:31:25.150Z,79
2022-08-30T06:32:41.406Z,77.5
2022-08-30T06:33:57.637Z,77.9
2022-08-30T06:35:13.890Z,77.3
2022-08-30T06:37:46.367Z,77.1
2022-08-30T06:39:02.598Z,76.4
2022-08-30T06:40:18.846Z,76.4
2022-08-30T06:41:35.083Z,75
2022-08-30T06:42:51.320Z,75
2022-08-30T06:44:06.569Z,74.4
2022-08-30T06:45:22.806Z,74.2
2022-08-30T06:46:39.066Z,73.7
2022-08-30T06:47:55.292Z,73.5
2022-08-30T06:49:11.544Z,73.7
2022-08-30T06:50:27.775Z,73.4
2022-08-30T06:51:44.008Z,72.6
2022-08-30T06:53:00.263Z,72.7
2022-08-30T06:54:16.497Z,72.8
2022-08-30T06:55:32.740Z,72.6
2022-08-30T06:56:48.966Z,70.9
2022-08-30T06:58:05.219Z,71.4
2022-08-30T06:59:21.449Z,70.7
2022-08-30T07:00:36.713Z,71.5
2022-08-30T07:01:52.949Z,70.8
2022-08-30T07:03:09.200Z,70.3
2022-08-30T07:04:25.432Z,71.2
2022-08-30T07:05:41.682Z,70.4
2022-08-30T07:06:57.902Z,70.7
2022-08-30T07:08:14.151Z,71.4
2022-08-30T07:09:30.391Z,71.2
2022-08-30T07:10:46.623Z,71.3
2022-08-30T07:12:02.877Z,70.9
2022-08-30T07:13:19.118Z,71.4
2022-08-30T07:14:35.354Z,71.3
2022-08-30T07:15:51.585Z,70.9
2022-08-30T07:17:06.850Z,70.8
2022-08-30T07:18:23.092Z,71
2022-08-30T07:19:39.330Z,71
2022-08-30T07:20:55.573Z,71.6
2022-08-30T07:22:11.814Z,71.4
2022-08-30T07:23:28.058Z,71.7
2022-08-30T07:24:44.297Z,71.7
2022-08-30T07:26:00.523Z,71.2
2022-08-30T07:27:16.766Z,71.6
2022-08-30T07:28:33.010Z,71.3
2022-08-30T07:29:49.252Z,70.2
2022-08-30T07:31:05.480Z,69.9
2022-08-30T07:32:21.733Z,69.6
2022-08-30T07:33:36.000Z,68.8
2022-08-30T07:34:53.237Z,69.3
2022-08-30T07:36:09.472Z,68.2
2022-08-30T07:37:25.705Z,68.2
2022-08-30T07:38:41.954Z,67.4
2022-08-30T07:39:58.184Z,67.9
2022-08-30T07:41:13.448Z,65.6
2022-08-30T07:42:29.687Z,66.2
2022-08-30T07:43:45.922Z,66.1
2022-08-30T07:45:02.170Z,66.3
2022-08-30T07:46:18.401Z,65.8
2022-08-30T07:47:34.643Z,65.3
2022-08-30T07:48:50.897Z,64.5
2022-08-30T07:50:07.133Z,64.7
2022-08-30T07:51:23.377Z,64.7
2022-08-30T07:52:39.601Z,64.8
2022-08-30T07:53:55.856Z,66.1
2022-08-30T07:55:12.084Z,66.5
2022-08-30T07:56:28.340Z,65.9
2022-08-30T07:57:43.589Z,65.6
2022-08-30T07:58:59.824Z,65.3
2022-08-30T08:00:16.059Z,64.8
2022-08-30T08:01:32.308Z,63.9
2022-08-30T08:02:48.541Z,63.4
2022-08-30T08:04:04.785Z,63.4
2022-08-30T08:05:21.035Z,62.4
2022-08-30T08:06:37.268Z,62.8
2022-08-30T08:07:53.509Z,64
2022-08-30T08:09:09.744Z,63.2
2022-08-30T08:10:25.989Z,62.6
2022-08-30T08:11:42.230Z,63.3
2022-08-30T08:12:58.466Z,63.5
2022-08-30T08:14:13.726Z,62.1
2022-08-30T08:15:29.972Z,61.9
2022-08-30T08:16:46.211Z,61
2022-08-30T08:18:02.450Z,60.1
2022-08-30T08:19:18.680Z,61.7
2022-08-30T08:20:34.919Z,60.9
2022-08-30T08:21:51.168Z,59.1
2022-08-30T08:23:07.396Z,59.5
2022-08-30T08:24:23.651Z,60.3
2022-08-30T08:25:39.884Z,58.9
2022-08-30T08:26:56.129Z,59.6
2022-08-30T08:28:12.362Z,58.4
2022-08-30T08:29:28.611Z,58.4
2022-08-30T08:30:43.863Z,58.1
2022-08-30T08:32:00.105Z,58.5
2022-08-30T08:33:16.331Z,58.7
2022-08-30T08:34:32.571Z,58.8
2022-08-30T08:35:48.814Z,57.4
2022-08-30T08:37:05.068Z,57.9
2022-08-30T08:38:21.310Z,57.7
2022-08-30T08:39:37.539Z,57.5
2022-08-30T08:40:53.789Z,54.5
2022-08-30T08:42:10.026Z,56.4
2022-08-30T08:43:26.249Z,57.2
2022-08-30T08:44:42.506Z,56
2022-08-30T08:45:58.739Z,55.4
2022-08-30T08:47:13.991Z,54.4
2022-08-30T08:48:30.230Z,53
2022-08-30T08:49:46.482Z,54.1
2022-08-30T08:51:02.716Z,51.4
2022-08-30T08:52:18.965Z,51.8
2022-08-30T08:53:35.193Z,51.4
2022-08-30T08:54:51.439Z,51.4
2022-08-30T08:56:07.666Z,53.6
2022-08-30T08:57:23.909Z,53.6
2022-08-30T08:58:40.149Z,53
2022-08-30T08:59:56.394Z,51.3
2022-08-30T09:01:12.647Z,52.1
2022-08-30T09:02:28.879Z,52.1
2022-08-30T09:03:44.127Z,51.9
2022-08-30T09:05:00.380Z,53.3
2022-08-30T09:06:16.623Z,51.8
2022-08-30T09:07:32.845Z,51.1
2022-08-30T09:08:49.104Z,52
2022-08-30T09:10:05.333Z,50.8
2022-08-30T09:11:21.569Z,51.9
2022-08-30T09:12:37.823Z,51.2
2022-08-30T09:13:54.051Z,51.8
2022-08-30T09:15:10.284Z,52.1
2022-08-30T09:16:26.525Z,51.5
2022-08-30T09:17:42.779Z,51.6
2022-08-30T09:18:59.025Z,51.3
2022-08-30T09:20:14.271Z,51.3
2022-08-30T09:21:30.515Z,51.4
2022-08-30T09:22:46.759Z,51.1
2022-08-30T09:24:02.986Z,52
2022-08-30T09:25:19.226Z,52
2022-08-30T09:26:35.474Z,52.2
2022-08-30T09:27:51.707Z,52.5
2022-08-30T09:29:07.943Z,51.6
2022-08-30T09:30:24.201Z,51.6
2022-08-30T09:31:40.433Z,51.6
2022-08-30T09:32:56.684Z,50.9
2022-08-30T09:34:12.917Z,49.6
2022-08-30T09:35:29.149Z,48.9
2022-08-30T09:36:44.415Z,50.3
2022-08-30T09:38:00.650Z,51.3
2022-08-30T09:39:16.903Z,51.1
2022-08-30T09:40:33.146Z,51.1
2022-08-30T09:41:49.376Z,50.4
2022-08-30T09:43:05.608Z,51.7
2022-08-30T09:44:21.841Z,50.9
2022-08-30T09:45:38.096Z,51.8
2022-08-30T09:46:54.330Z,51.9
2022-08-30T09:48:10.577Z,51.3
2022-08-30T09:49:26.806Z,50.8
2022-08-30T09:50:43.045Z,50.8
2022-08-30T09:51:59.291Z,50.2
2022-08-30T09:53:14.544Z,50.2
2022-08-30T09:54:30.787Z,49.2
2022-08-30T09:55:47.033Z,49.8
2022-08-30T09:57:03.280Z,51.7
2022-08-30T09:58:19.519Z,48.9
2022-08-30T09:59:35.746Z,50.1
2022-08-30T10:00:51.000Z,51.1
2022-08-30T10:02:08.231Z,51.4
2022-08-30T10:03:24.472Z,51.3
2022-08-30T10:04:40.703Z,49.9
2022-08-30T10:05:56.954Z,51
2022-08-30T10:07:13.195Z,50.5
2022-08-30T10:08:29.431Z,49.9
2022-08-30T10:09:44.690Z,50.9
2022-08-30T10:11:00.924Z,49.5
2022-08-30T10:12:17.166Z,49.8
2022-08-30T10:13:33.413Z,50.5
2022-08-30T10:14:49.665Z,51
2022-08-30T10:16:05.879Z,49.6
2022-08-30T10:17:22.124Z,49.5
2022-08-30T10:18:38.369Z,49.3
2022-08-30T10:19:54.621Z,49.9
2022-08-30T10:21:10.849Z,50.3
2022-08-30T10:22:27.084Z,50.6
2022-08-30T10:23:43.326Z,50.2
2022-08-30T10:24:59.568Z,51
2022-08-30T10:26:14.822Z,51.1
2022-08-30T10:27:31.061Z,51.6
2022-08-30T10:28:47.319Z,52.8
2022-08-30T10:30:03.559Z,52.4
2022-08-30T10:31:19.783Z,51.6
2022-08-30T10:32:36.023Z,51.8
2022-08-30T10:33:52.280Z,51.6
2022-08-30T10:35:08.501Z,52
2022-08-30T10:36:24.758Z,51.5
2022-08-30T10:37:40.992Z,52.2
2022-08-30T10:38:57.239Z,53.5
2022-08-30T10:40:13.482Z,53.3
2022-08-30T10:41:29.717Z,52.3
2022-08-30T10:42:44.962Z,52.2
2022-08-30T10:44:01.216Z,51.1
2022-08-30T10:45:17.468Z,52.3
2022-08-30T10:46:33.697Z,52.5
2022-08-30T10:47:49.937Z,54
2022-08-30T10:49:06.171Z,53.7
2022-08-30T10:50:22.420Z,53
2022-08-30T10:51:38.647Z,53.3
2022-08-30T10:52:54.889Z,54
2022-08-30T10:54:11.129Z,53.6
2022-08-30T10:55:27.376Z,53.5
2022-08-30T10:56:43.602Z,53.4
2022-08-30T10:57:59.841Z,53.2
2022-08-30T10:59:15.108Z,53.2
2022-08-30T11:00:31.339Z,53.8
2022-08-30T11:01:47.590Z,53.6
2022-08-30T11:03:03.838Z,53.5
2022-08-30T11:04:20.077Z,55
2022-08-30T11:05:36.298Z,55.4
2022-08-30T11:06:52.541Z,56
2022-08-30T11:08:08.783Z,55.9
2022-08-30T11:09:25.039Z,55.4
2022-08-30T11:10:41.269Z,55.8
2022-08-30T11:11:57.500Z,55.6
2022-08-30T11:13:13.745Z,55.4
2022-08-30T11:14:29.998Z,56.5
2022-08-30T11:15:45.247Z,55.9
2022-08-30T11:17:01.494Z,55.8
2022-08-30T11:18:17.734Z,56.8
2022-08-30T11:19:33.956Z,56.9
2022-08-30T11:20:50.215Z,55.6
2022-08-30T11:22:06.453Z,54.1
2022-08-30T11:23:22.678Z,54.7
2022-08-30T11:24:38.933Z,54.5
2022-08-30T11:25:55.175Z,54.9
2022-08-30T11:27:11.417Z,54.6
2022-08-30T11:28:27.649Z,54.7
2022-08-30T11:29:43.879Z,53.7
2022-08-30T11:31:00.135Z,53.7
2022-08-30T11:32:15.379Z,53.9
2022-08-30T11:33:31.614Z,53.2
2022-08-30T11:34:47.871Z,52.1
2022-08-30T11:36:04.120Z,54
2022-08-30T11:37:20.341Z,53.7
2022-08-30T11:38:36.591Z,52.4
2022-08-30T11:39:52.833Z,50.6
2022-08-30T11:41:09.056Z,52.2
2022-08-30T11:42:25.301Z,53.5
2022-08-30T11:43:41.556Z,52.9
2022-08-30T11:44:57.788Z,54
2022-08-30T11:46:14.015Z,53.4
2022-08-30T11:47:30.261Z,52.8
2022-08-30T11:48:45.512Z,53.6
2022-08-30T11:50:01.756Z,54.1
2022-08-30T11:51:18.004Z,53
2022-08-30T11:52:34.236Z,53.4
2022-08-30T11:53:50.486Z,53.8
2022-08-30T11:55:06.713Z,53.4
2022-08-30T11:56:21.991Z,53.9
2022-08-30T11:57:38.229Z,54.9
2022-08-30T11:58:54.477Z,56
2022-08-30T12:00:10.696Z,54.5
2022-08-30T12:01:26.954Z,53.6
2022-08-30T12:02:43.179Z,53.1
2022-08-30T12:05:15.659Z,56.5
2022-08-30T12:06:31.914Z,57.7
2022-08-30T12:07:48.151Z,58.3
2022-08-30T12:09:04.375Z,57.5
2022-08-30T12:10:20.618Z,57.2
2022-08-30T12:11:36.861Z,57.2
2022-08-30T12:12:52.129Z,57.5
2022-08-30T12:14:08.354Z,58
2022-08-30T12:15:24.607Z,56.4
2022-08-30T12:16:40.833Z,56.2
2022-08-30T12:17:57.072Z,56.8
2022-08-30T12:19:13.321Z,57.1
2022-08-30T12:20:29.558Z,56.2
2022-08-30T12:21:45.812Z,57.1
2022-08-30T12:23:02.037Z,57.2
2022-08-30T12:24:18.285Z,58
2022-08-30T12:25:34.530Z,58.7
2022-08-30T12:26:50.789Z,58.7
2022-08-30T12:28:06.996Z,59
2022-08-30T12:29:22.249Z,58.9
2022-08-30T12:30:38.501Z,58.5
2022-08-30T12:31:54.729Z,59
2022-08-30T12:33:10.987Z,57.6
2022-08-30T12:34:27.209Z,58.3
2022-08-30T12:35:43.461Z,58.7
2022-08-30T12:36:59.692Z,58.3
2022-08-30T12:38:15.944Z,58.1
2022-08-30T12:39:32.176Z,58.6
2022-08-30T12:40:48.428Z,58
2022-08-30T12:42:04.656Z,59.4
2022-08-30T12:43:20.905Z,61
2022-08-30T12:44:37.147Z,61.9
2022-08-30T12:45:52.401Z,61.5
2022-08-30T12:47:08.629Z,62
2022-08-30T12:48:24.865Z,62.1
2022-08-30T12:49:41.129Z,62.2
2022-08-30T12:50:57.368Z,62.3
2022-08-30T12:52:13.594Z,63.3
2022-08-30T12:53:29.845Z,63.1
2022-08-30T12:54:46.087Z,63.1
2022-08-30T12:56:02.320Z,62.6
2022-08-30T12:57:18.557Z,62.3
2022-08-30T12:58:34.797Z,62.6
2022-08-30T12:59:51.035Z,63.6
2022-08-30T13:01:07.271Z,63.4
2022-08-30T13:02:22.535Z,63.7
2022-08-30T13:03:38.789Z,63.6
2022-08-30T13:04:55.028Z,63.4
2022-08-30T13:06:11.244Z,63.4
2022-08-30T13:07:27.483Z,63.4
2022-08-30T13:08:43.725Z,62.9
2022-08-30T13:09:59.972Z,62.4
2022-08-30T13:11:16.207Z,63.2
2022-08-30T13:12:32.465Z,61.7
2022-08-30T13:13:48.690Z,61.7
2022-08-30T13:15:04.945Z,61.9
2022-08-30T13:16:21.188Z,61
2022-08-30T13:17:37.422Z,61.6
2022-08-30T13:18:52.696Z,62.1
2022-08-30T13:20:08.908Z,61.6
2022-08-30T13:21:25.159Z,60.3
2022-08-30T13:22:41.387Z,59.8
2022-08-30T13:23:57.623Z,59.7
2022-08-30T13:25:13.888Z,60.5
2022-08-30T13:26:30.102Z,61.5
2022-08-30T13:27:46.365Z,62.1
2022-08-30T13:29:02.595Z,60.6
2022-08-30T13:30:18.846Z,59.5
2022-08-30T13:31:35.075Z,59.2
2022-08-30T13:32:51.323Z,58.3
2022-08-30T13:34:07.549Z,58.6
2022-08-30T13:35:22.797Z,58.8
2022-08-30T13:36:39.046Z,59.5
2022-08-30T13:37:55.309Z,59.4
2022-08-30T13:39:11.523Z,59.9
2022-08-30T13:40:27.777Z,58.5
2022-08-30T13:41:44.001Z,58.4
2022-08-30T13:43:00.245Z,58.9
2022-08-30T13:44:16.489Z,59.9
2022-08-30T13:45:32.715Z,59.8
2022-08-30T13:46:48.984Z,59.3
2022-08-30T13:48:05.199Z,59.1
2022-08-30T13:49:21.447Z,59.7
2022-08-30T13:50:37.683Z,59.5
2022-08-30T13:51:52.950Z,59.6
2022-08-30T13:53:09.172Z,59
2022-08-30T13:54:25.426Z,58.8
2022-08-30T13:55:41.685Z,58.7
2022-08-30T13:56:57.895Z,59.7
2022-08-30T13:58:14.132Z,58.2
2022-08-30T13:59:30.384Z,59.8
2022-08-30T14:00:46.623Z,59.7
2022-08-30T14:02:02.871Z,60.4
2022-08-30T14:03:19.096Z,59.4
2022-08-30T14:04:35.356Z,58.7
2022-08-30T14:05:51.582Z,59
2022-08-30T14:07:07.817Z,59
2022-08-30T14:08:23.093Z,59.2
2022-08-30T14:09:39.315Z,58.4
2022-08-30T14:10:55.575Z,58.9
2022-08-30T14:12:11.821Z,57.8
2022-08-30T14:13:28.036Z,57.8
2022-08-30T14:14:44.268Z,58.8
2022-08-30T14:16:00.520Z,59.2
2022-08-30T14:17:16.766Z,57.9
2022-08-30T14:18:32.994Z,58.3
2022-08-30T14:19:49.228Z,58.3
2022-08-30T14:21:05.499Z,59.1
2022-08-30T14:22:21.716Z,58.6
2022-08-30T14:23:37.967Z,58.8
2022-08-30T14:24:53.207Z,58.8
2022-08-30T14:26:09.472Z,58.4
2022-08-30T14:27:25.697Z,58.4
2022-08-30T14:28:41.924Z,58.3
2022-08-30T14:29:58.167Z,58.7
2022-08-30T14:31:14.428Z,58.3
2022-08-30T14:32:30.644Z,58.1
2022-08-30T14:33:46.895Z,58.3
2022-08-30T14:35:03.137Z,57.9
2022-08-30T14:36:19.395Z,57.9
2022-08-30T14:37:35.609Z,58.1
2022-08-30T14:38:51.844Z,57.7
2022-08-30T14:40:08.097Z,57.9
2022-08-30T14:41:23.353Z,56.4
2022-08-30T14:42:39.587Z,56.7
2022-08-30T14:43:55.822Z,57.1
2022-08-30T14:45:12.070Z,56.9
2022-08-30T14:46:28.320Z,56.5
2022-08-30T14:47:44.543Z,56.6
2022-08-30T14:49:00.798Z,56.6
2022-08-30T14:50:17.029Z,56.3
2022-08-30T14:51:33.280Z,56.6
2022-08-30T14:52:49.504Z,57.8
2022-08-30T14:54:05.745Z,57.7
2022-08-30T14:55:21.987Z,57
2022-08-30T14:56:38.237Z,57.3
2022-08-30T14:57:53.485Z,57.7
2022-08-30T14:59:09.748Z,58
2022-08-30T15:00:25.971Z,57
2022-08-30T15:01:42.207Z,57.7
2022-08-30T15:02:58.452Z,57.6
2022-08-30T15:04:14.692Z,57.2
2022-08-30T15:05:30.921Z,58.3
2022-08-30T15:06:47.175Z,57.3
2022-08-30T15:08:03.414Z,56.7
2022-08-30T15:09:19.647Z,56.3
2022-08-30T15:10:35.885Z,56.5
2022-08-30T15:11:52.117Z,56.3
2022-08-30T15:13:08.373Z,57.4
2022-08-30T15:14:23.630Z,57.3
2022-08-30T15:15:39.861Z,57.7
2022-08-30T15:16:56.092Z,57.4
2022-08-30T15:18:12.334Z,57.4
2022-08-30T15:19:28.578Z,58
2022-08-30T15:20:44.829Z,58
2022-08-30T15:22:01.062Z,58.4
2022-08-30T15:23:17.302Z,57.9
2022-08-30T15:24:33.532Z,57.9
2022-08-30T15:25:49.787Z,57.8
2022-08-30T15:27:06.020Z,58.4
2022-08-30T15:28:22.252Z,58.2
2022-08-30T15:29:38.508Z,58
2022-08-30T15:30:53.747Z,57.5
2022-08-30T15:32:10.015Z,58
2022-08-30T15:34:42.474Z,57
2022-08-30T15:35:58.719Z,56.9
2022-08-30T15:37:14.958Z,58
2022-08-30T15:38:31.205Z,56.8
2022-08-30T15:39:47.440Z,57.8
2022-08-30T15:41:03.680Z,58.5
2022-08-30T15:42:19.939Z,58.4
2022-08-30T15:43:36.150Z,59
2022-08-30T15:44:52.396Z,58.3
2022-08-30T15:46:08.635Z,58
2022-08-30T15:47:23.892Z,59
2022-08-30T15:48:40.140Z,58.5
2022-08-30T15:49:56.373Z,58.5
2022-08-30T15:51:12.618Z,57.9
2022-08-30T15:52:28.855Z,59.3
2022-08-30T15:53:45.114Z,58.9
2022-08-30T15:55:01.342Z,58.3
2022-08-30T15:56:17.574Z,58.4
2022-08-30T15:57:33.836Z,58.8
2022-08-30T15:58:50.047Z,59.2
2022-08-30T16:00:06.285Z,60
2022-08-30T16:01:22.531Z,58.7
2022-08-30T16:02:38.770Z,59.3
2022-08-30T16:03:54.023Z,59.8
2022-08-30T16:05:10.265Z,59.6
2022-08-30T16:06:26.499Z,59.8
2022-08-30T16:07:42.757Z,60.7
2022-08-30T16:08:58.987Z,60.7
2022-08-30T16:10:15.223Z,60.9
2022-08-30T16:11:30.496Z,61.5
2022-08-30T16:12:46.720Z,60.7
2022-08-30T16:14:02.958Z,60.2
2022-08-30T16:15:19.208Z,60.7
2022-08-30T16:16:35.450Z,60.8
2022-08-30T16:17:51.684Z,61.1
2022-08-30T16:19:07.918Z,60.8
2022-08-30T16:20:24.177Z,60.7
2022-08-30T16:21:40.407Z,60.1
2022-08-30T16:22:56.650Z,60
2022-08-30T16:24:12.904Z,59.7
2022-08-30T16:25:29.123Z,60.3
2022-08-30T16:26:45.358Z,59.3
2022-08-30T16:28:00.648Z,58.5
2022-08-30T16:29:16.865Z,57.4
2022-08-30T16:30:33.096Z,57.5
2022-08-30T16:31:49.342Z,57.7
2022-08-30T16:33:05.587Z,58.3
2022-08-30T16:34:21.827Z,58.1
2022-08-30T16:35:38.086Z,58.7
2022-08-30T16:36:54.298Z,58.4
2022-08-30T16:38:10.533Z,59.2
2022-08-30T16:39:26.779Z,59.6
2022-08-30T16:40:43.022Z,60.1
2022-08-30T16:41:59.271Z,59.1
2022-08-30T16:43:15.527Z,59.5
2022-08-30T16:44:30.751Z,59.8
2022-08-30T16:45:46.996Z,59.9
2022-08-30T16:47:03.244Z,59.9
2022-08-30T16:48:19.479Z,60.6
2022-08-30T16:49:35.726Z,60.6
2022-08-30T16:50:51.963Z,60.7
2022-08-30T16:52:08.200Z,60.6
2022-08-30T16:53:24.426Z,61.2
2022-08-30T16:54:40.669Z,61.1
2022-08-30T16:55:56.920Z,61.3
2022-08-30T16:57:13.160Z,61.6
2022-08-30T16:58:29.394Z,61.7
2022-08-30T16:59:45.635Z,61.7
2022-08-30T17:01:00.883Z,62
2022-08-30T17:02:17.130Z,62
2022-08-30T17:03:33.401Z,62.4
2022-08-30T17:04:49.614Z,62.4
2022-08-30T17:06:05.842Z,62.4
2022-08-30T17:07:22.097Z,62.6
2022-08-30T17:09:54.568Z,62.4